RYR1CZ EHEH-EPMO
Flight info
| Callsign | RYR1CZ |
|---|---|
| Flight time | N/A |
| Altitude | 23000 |
| Route | VELNI Y869 SUMOP L179 ERKUM/N0439F370 L179 MISRI Z851 ROBEG DCT HLZ DCT SUBIX DCT OBOKU P150 DOSIX |
| Aircraft | B738/M-SDE2E3FGHIRWXY/LB1 |
Departure
| Time | 2026-04-28 13:17 |
|---|---|
| Airport | Eindhoven Airport (EHEH) |
Arrival
| Time | N/A |
|---|---|
| Airport | Warsaw Modlin Airport (EPMO) |
| Time | Latitude | Longitude | Altitude | Speed | Heading |
|---|---|---|---|---|---|
| 2026-04-28 12:44 | 51.45720 | 5.38895 | 74 ft | 0 kts | 125° |
| 2026-04-28 13:02 | 51.45723 | 5.38886 | 74 ft | 4 kts | 126° |
| 2026-04-28 13:02 | 51.45741 | 5.38854 | 60 ft | 4 kts | 138° |
| 2026-04-28 13:02 | 51.45762 | 5.38829 | 74 ft | 4 kts | 161° |
| 2026-04-28 13:02 | 51.45785 | 5.38827 | 59 ft | 3 kts | 212° |
| 2026-04-28 13:03 | 51.45791 | 5.38833 | 74 ft | 0 kts | 215° |
| 2026-04-28 13:07 | 51.45790 | 5.38831 | 74 ft | 1 kts | 224° |
| 2026-04-28 13:07 | 51.45794 | 5.38800 | 70 ft | 9 kts | 284° |
| 2026-04-28 13:07 | 51.45837 | 5.38679 | 65 ft | 13 kts | 306° |
| 2026-04-28 13:08 | 51.45889 | 5.38559 | 74 ft | 13 kts | 305° |
| 2026-04-28 13:08 | 51.45941 | 5.38444 | 65 ft | 13 kts | 307° |
| 2026-04-28 13:08 | 51.45991 | 5.38301 | 69 ft | 16 kts | 265° |
| 2026-04-28 13:08 | 51.45902 | 5.38169 | 68 ft | 19 kts | 216° |
| 2026-04-28 13:09 | 51.45798 | 5.38051 | 72 ft | 18 kts | 214° |
| 2026-04-28 13:09 | 51.45697 | 5.37939 | 73 ft | 17 kts | 215° |
| 2026-04-28 13:09 | 51.45600 | 5.37830 | 74 ft | 17 kts | 215° |
| 2026-04-28 13:09 | 51.45506 | 5.37726 | 72 ft | 16 kts | 215° |
| 2026-04-28 13:10 | 51.45414 | 5.37623 | 69 ft | 17 kts | 215° |
| 2026-04-28 13:10 | 51.45306 | 5.37501 | 71 ft | 21 kts | 215° |
| 2026-04-28 13:10 | 51.45172 | 5.37350 | 65 ft | 26 kts | 215° |
| 2026-04-28 13:10 | 51.45012 | 5.37170 | 68 ft | 21 kts | 215° |
| 2026-04-28 13:11 | 51.44891 | 5.37037 | 66 ft | 21 kts | 215° |
| 2026-04-28 13:11 | 51.44774 | 5.36904 | 71 ft | 20 kts | 216° |
| 2026-04-28 13:11 | 51.44661 | 5.36780 | 72 ft | 17 kts | 212° |
| 2026-04-28 13:11 | 51.44634 | 5.36749 | 74 ft | 3 kts | 215° |
| 2026-04-28 13:12 | 51.44617 | 5.36730 | 74 ft | 3 kts | 214° |
| 2026-04-28 13:12 | 51.44615 | 5.36728 | 74 ft | 0 kts | 215° |
| 2026-04-28 13:14 | 51.44607 | 5.36719 | 66 ft | 7 kts | 216° |
| 2026-04-28 13:14 | 51.44526 | 5.36627 | 67 ft | 17 kts | 214° |
| 2026-04-28 13:14 | 51.44429 | 5.36519 | 71 ft | 17 kts | 215° |
| 2026-04-28 13:15 | 51.44335 | 5.36414 | 74 ft | 16 kts | 215° |
| 2026-04-28 13:15 | 51.44245 | 5.36313 | 70 ft | 15 kts | 215° |
| 2026-04-28 13:15 | 51.44158 | 5.36217 | 74 ft | 15 kts | 214° |
| 2026-04-28 13:15 | 51.44076 | 5.36123 | 70 ft | 14 kts | 216° |
| 2026-04-28 13:16 | 51.43990 | 5.36084 | 68 ft | 14 kts | 150° |
| 2026-04-28 13:16 | 51.43945 | 5.36176 | 70 ft | 7 kts | 113° |
| 2026-04-28 13:16 | 51.43956 | 5.36267 | 67 ft | 11 kts | 41° |
| 2026-04-28 13:16 | 51.44072 | 5.36398 | 75 ft | 44 kts | 35° |
| 2026-04-28 13:17 | 51.44516 | 5.36896 | 74 ft | 108 kts | 36° |
| 2026-04-28 13:17 | 51.45247 | 5.37751 | 243 ft | 142 kts | 39° |
| 2026-04-28 13:17 | 51.46088 | 5.38711 | 755 ft | 155 kts | 38° |
| 2026-04-28 13:17 | 51.46950 | 5.39665 | 1589 ft | 148 kts | 38° |
| 2026-04-28 13:18 | 51.47826 | 5.40632 | 2112 ft | 164 kts | 38° |
| 2026-04-28 13:18 | 51.48834 | 5.41762 | 2379 ft | 189 kts | 38° |
| 2026-04-28 13:18 | 51.49964 | 5.43024 | 2636 ft | 205 kts | 38° |
| 2026-04-28 13:18 | 51.51035 | 5.44549 | 3072 ft | 208 kts | 59° |
| 2026-04-28 13:19 | 51.51449 | 5.46731 | 3606 ft | 209 kts | 86° |
| 2026-04-28 13:19 | 51.51259 | 5.49033 | 4257 ft | 211 kts | 103° |
| 2026-04-28 13:19 | 51.50801 | 5.51289 | 4861 ft | 212 kts | 106° |
| 2026-04-28 13:19 | 51.50321 | 5.53533 | 5422 ft | 216 kts | 107° |
| 2026-04-28 13:20 | 51.49837 | 5.55827 | 5988 ft | 218 kts | 107° |
| 2026-04-28 13:20 | 51.49365 | 5.58175 | 6179 ft | 224 kts | 103° |
| 2026-04-28 13:20 | 51.49015 | 5.60624 | 6207 ft | 224 kts | 101° |
| 2026-04-28 13:20 | 51.48692 | 5.63072 | 6220 ft | 225 kts | 101° |
| 2026-04-28 13:21 | 51.48409 | 5.65565 | 6444 ft | 230 kts | 92° |
| 2026-04-28 13:21 | 51.48510 | 5.67698 | 6932 ft | 230 kts | 83° |
| 2026-04-28 13:21 | 51.48672 | 5.69563 | 7159 ft | 244 kts | 83° |
| 2026-04-28 13:21 | 51.48906 | 5.72331 | 7645 ft | 255 kts | 83° |
| 2026-04-28 13:22 | 51.49141 | 5.75155 | 8460 ft | 257 kts | 83° |
| 2026-04-28 13:22 | 51.49383 | 5.78050 | 9148 ft | 264 kts | 84° |
| 2026-04-28 13:22 | 51.49624 | 5.80993 | 9980 ft | 265 kts | 84° |
| 2026-04-28 13:22 | 51.49866 | 5.83972 | 10636 ft | 275 kts | 84° |
| 2026-04-28 13:23 | 51.50123 | 5.87160 | 10823 ft | 300 kts | 84° |
| 2026-04-28 13:23 | 51.50396 | 5.90593 | 11161 ft | 317 kts | 84° |
| 2026-04-28 13:23 | 51.50673 | 5.94090 | 11988 ft | 318 kts | 84° |
| 2026-04-28 13:23 | 51.50954 | 5.97658 | 12584 ft | 327 kts | 84° |
| 2026-04-28 13:24 | 51.51243 | 6.01332 | 13256 ft | 333 kts | 84° |
| 2026-04-28 13:24 | 51.51528 | 6.04966 | 14156 ft | 335 kts | 84° |
| 2026-04-28 13:24 | 51.51821 | 6.08718 | 14762 ft | 343 kts | 83° |
| 2026-04-28 13:24 | 51.52119 | 6.12550 | 15440 ft | 348 kts | 83° |
| 2026-04-28 13:25 | 51.52418 | 6.16435 | 16221 ft | 352 kts | 84° |
| 2026-04-28 13:25 | 51.52720 | 6.20353 | 16944 ft | 357 kts | 83° |
| 2026-04-28 13:25 | 51.53095 | 6.24327 | 17615 ft | 363 kts | 81° |
| 2026-04-28 13:25 | 51.53540 | 6.28341 | 18330 ft | 368 kts | 79° |
| 2026-04-28 13:26 | 51.54003 | 6.32416 | 18922 ft | 374 kts | 79° |
| 2026-04-28 13:26 | 51.54465 | 6.36546 | 19567 ft | 377 kts | 80° |
| 2026-04-28 13:26 | 51.54921 | 6.40714 | 20186 ft | 381 kts | 80° |
| 2026-04-28 13:26 | 51.55374 | 6.44922 | 20818 ft | 384 kts | 80° |
| 2026-04-28 13:27 | 51.55828 | 6.49181 | 21413 ft | 389 kts | 81° |
| 2026-04-28 13:27 | 51.56288 | 6.53480 | 22020 ft | 392 kts | 79° |
| 2026-04-28 13:27 | 51.57045 | 6.57708 | 22630 ft | 396 kts | 68° |
| 2026-04-28 13:27 | 51.58273 | 6.61697 | 23217 ft | 401 kts | 58° |
| 2026-04-28 13:28 | 51.59906 | 6.65348 | 23808 ft | 404 kts | 52° |
| 2026-04-28 13:28 | 51.61636 | 6.68946 | 24247 ft | 408 kts | 52° |
| 2026-04-28 13:28 | 51.63365 | 6.72573 | 24842 ft | 407 kts | 52° |
| 2026-04-28 13:28 | 51.65062 | 6.76218 | 25455 ft | 407 kts | 53° |
| 2026-04-28 13:29 | 51.66753 | 6.79887 | 25937 ft | 410 kts | 52° |
| 2026-04-28 13:29 | 51.68456 | 6.83597 | 26355 ft | 414 kts | 52° |
| 2026-04-28 13:29 | 51.70150 | 6.87293 | 26813 ft | 416 kts | 52° |
| 2026-04-28 13:29 | 51.71871 | 6.91049 | 27320 ft | 417 kts | 52° |
| 2026-04-28 13:30 | 51.73622 | 6.94878 | 27809 ft | 419 kts | 52° |
| 2026-04-28 13:30 | 51.75334 | 6.98626 | 28262 ft | 421 kts | 52° |
| 2026-04-28 13:30 | 51.77075 | 7.02447 | 28702 ft | 424 kts | 53° |
| 2026-04-28 13:30 | 51.78827 | 7.06292 | 29136 ft | 426 kts | 52° |
| 2026-04-28 13:31 | 51.82352 | 7.14048 | 29970 ft | 430 kts | 52° |
| 2026-04-28 13:31 | 51.84122 | 7.17950 | 30400 ft | 431 kts | 53° |
| 2026-04-28 13:31 | 51.85856 | 7.21910 | 30744 ft | 433 kts | 56° |
| 2026-04-28 13:32 | 51.87332 | 7.26175 | 31063 ft | 436 kts | 61° |
| 2026-04-28 13:32 | 51.88705 | 7.30558 | 31380 ft | 437 kts | 62° |
| 2026-04-28 13:32 | 51.90070 | 7.34950 | 31787 ft | 437 kts | 62° |
| 2026-04-28 13:32 | 51.91468 | 7.39352 | 31972 ft | 442 kts | 60° |
| 2026-04-28 13:33 | 51.92899 | 7.43781 | 32297 ft | 444 kts | 61° |
| 2026-04-28 13:33 | 51.94280 | 7.48239 | 32743 ft | 442 kts | 65° |
| 2026-04-28 13:33 | 51.95271 | 7.52961 | 33164 ft | 443 kts | 73° |
| 2026-04-28 13:33 | 51.96077 | 7.57782 | 33544 ft | 443 kts | 73° |
| 2026-04-28 13:34 | 51.96858 | 7.62622 | 33838 ft | 445 kts | 73° |
| 2026-04-28 13:34 | 51.97652 | 7.67479 | 34203 ft | 445 kts | 73° |
| 2026-04-28 13:34 | 51.98459 | 7.72320 | 34551 ft | 444 kts | 73° |
| 2026-04-28 13:34 | 51.99276 | 7.77142 | 34869 ft | 443 kts | 72° |
| 2026-04-28 13:35 | 52.00095 | 7.81960 | 35157 ft | 443 kts | 73° |
| 2026-04-28 13:35 | 52.00915 | 7.86789 | 35434 ft | 444 kts | 72° |
| 2026-04-28 13:35 | 52.01713 | 7.91647 | 35609 ft | 448 kts | 72° |
| 2026-04-28 13:35 | 52.02486 | 7.96511 | 36179 ft | 439 kts | 73° |
| 2026-04-28 13:36 | 52.03237 | 8.01254 | 36808 ft | 431 kts | 72° |
| 2026-04-28 13:36 | 52.04012 | 8.05968 | 36969 ft | 434 kts | 72° |
| 2026-04-28 13:36 | 52.05621 | 8.15501 | 37230 ft | 439 kts | 72° |
| 2026-04-28 13:37 | 52.07233 | 8.25151 | 37285 ft | 443 kts | 72° |
| 2026-04-28 13:37 | 52.08807 | 8.34785 | 37273 ft | 437 kts | 72° |
| 2026-04-28 13:38 | 52.10337 | 8.44343 | 37292 ft | 440 kts | 72° |
| 2026-04-28 13:38 | 52.11884 | 8.54031 | 37307 ft | 450 kts | 72° |
| 2026-04-28 13:39 | 52.13481 | 8.64078 | 37303 ft | 460 kts | 73° |
| 2026-04-28 13:39 | 52.15076 | 8.74178 | 37291 ft | 466 kts | 73° |
| 2026-04-28 13:40 | 52.16680 | 8.84408 | 37292 ft | 467 kts | 73° |
| 2026-04-28 13:40 | 52.18281 | 8.94663 | 37295 ft | 467 kts | 73° |
| 2026-04-28 13:41 | 52.19612 | 9.03094 | 37300 ft | 467 kts | 73° |